createdAt,value
2022-11-10T00:02:15.582Z,100784.09
2022-11-10T00:07:18.803Z,100781.72
2022-11-10T00:12:24.206Z,100776.31
2022-11-10T00:17:27.340Z,100776.19
2022-11-10T00:22:30.598Z,100785.81
2022-11-10T00:27:35.570Z,100788.78
2022-11-10T00:32:38.732Z,100779.03
2022-11-10T00:37:41.954Z,100781.56
2022-11-10T00:42:46.479Z,100788.56
2022-11-10T00:47:49.663Z,100787.72
2022-11-10T00:52:52.804Z,100788.69
2022-11-10T00:57:57.406Z,100786.09
2022-11-10T01:03:02.691Z,100781.72
2022-11-10T01:08:06.524Z,100789.84
2022-11-10T01:13:11.145Z,100777.63
2022-11-10T01:18:14.374Z,100778.53
2022-11-10T01:23:17.495Z,100785.53
2022-11-10T01:28:22.055Z,100788.06
2022-11-10T01:33:25.243Z,100789.06
2022-11-10T01:38:29.299Z,100791.81
2022-11-10T01:43:34.630Z,100794.63
2022-11-10T01:48:42.181Z,100791.25
2022-11-10T01:53:48.475Z,100794.94
2022-11-10T01:58:59.286Z,100785.31
2022-11-10T02:04:05.016Z,100782.56
2022-11-10T02:09:08.775Z,100785.16
2022-11-10T02:14:14.468Z,100785.22
2022-11-10T02:19:21.052Z,100797.59
2022-11-10T02:24:25.593Z,100792.25
2022-11-10T02:29:28.757Z,100796.69
2022-11-10T02:34:31.959Z,100799.38
2022-11-10T02:39:36.551Z,100791.66
2022-11-10T02:44:40.150Z,100794.22
2022-11-10T02:49:45.103Z,100791.53
2022-11-10T02:54:49.670Z,100789.81
2022-11-10T02:59:53.130Z,100780.16
2022-11-10T03:04:56.250Z,100789.81
2022-11-10T03:10:00.838Z,100786.38
2022-11-10T03:15:03.993Z,100779.34
2022-11-10T03:20:07.943Z,100782.84
2022-11-10T03:25:13.096Z,100779.28
2022-11-10T03:30:16.398Z,100771.38
2022-11-10T03:35:19.841Z,100767.91
2022-11-10T03:40:24.378Z,100770.59
2022-11-10T03:45:27.533Z,100777.63
2022-11-10T03:50:30.692Z,100778.38
2022-11-10T03:55:35.288Z,100780.06
2022-11-10T04:00:38.583Z,100777.56
2022-11-10T04:05:59.461Z,100781.00
2022-11-10T04:11:04.702Z,100776.59
2022-11-10T04:16:08.095Z,100781.13
2022-11-10T04:21:12.286Z,100781.22
2022-11-10T04:26:33.722Z,100783.13
2022-11-10T04:31:38.787Z,100780.56
2022-11-10T04:36:44.016Z,100777.94
2022-11-10T04:41:48.903Z,100785.03
2022-11-10T04:46:52.054Z,100782.41
2022-11-10T04:51:55.239Z,100785.03
2022-11-10T04:56:59.802Z,100785.97
2022-11-10T05:02:02.940Z,100789.50
2022-11-10T05:07:06.135Z,100791.13
2022-11-10T05:12:10.770Z,100785.97
2022-11-10T05:17:13.954Z,100795.81
2022-11-10T05:22:17.118Z,100795.81
2022-11-10T05:27:21.810Z,100803.81
2022-11-10T05:32:24.972Z,100796.59
2022-11-10T05:37:28.100Z,100801.06
2022-11-10T05:42:32.659Z,100796.81
2022-11-10T05:47:37.650Z,100804.72
2022-11-10T05:52:47.593Z,100807.34
2022-11-10T05:57:55.966Z,100797.75
2022-11-10T06:03:00.855Z,100795.19
2022-11-10T06:08:06.290Z,100799.47
2022-11-10T06:13:11.859Z,100796.03
2022-11-10T06:18:15.034Z,100790.78
2022-11-10T06:23:18.178Z,100808.28
2022-11-10T06:28:22.746Z,100811.72
2022-11-10T06:33:26.063Z,100805.72
2022-11-10T06:38:29.166Z,100810.09
2022-11-10T06:43:33.830Z,100817.16
2022-11-10T06:48:36.952Z,100817.22
2022-11-10T06:53:40.101Z,100819.84
2022-11-10T06:58:44.669Z,100814.00
2022-11-10T07:04:12.967Z,100818.78
2022-11-10T07:09:11.126Z,100827.13
2022-11-10T07:14:15.678Z,100833.63
2022-11-10T07:19:18.806Z,100844.38
2022-11-10T07:24:21.915Z,100845.41
2022-11-10T07:29:27.012Z,100854.22
2022-11-10T07:34:30.169Z,100875.09
2022-11-10T07:39:33.327Z,100878.47
2022-11-10T07:44:37.918Z,100883.69
2022-11-10T07:49:41.356Z,100901.09
2022-11-10T07:54:44.493Z,100906.22
2022-11-10T07:59:51.726Z,100911.47
2022-11-10T08:04:56.102Z,100926.19
2022-11-10T08:09:59.403Z,100935.63
2022-11-10T08:15:04.011Z,100944.97
2022-11-10T08:20:09.226Z,100940.66
2022-11-10T08:25:12.424Z,100946.50
2022-11-10T08:30:17.794Z,100954.00
2022-11-10T08:35:20.950Z,100957.09
2022-11-10T08:40:27.864Z,100965.34
2022-11-10T08:45:32.474Z,100975.31
2022-11-10T08:50:36.062Z,100973.13
2022-11-10T08:55:39.249Z,100982.66
2022-11-10T09:00:43.885Z,100988.63
2022-11-10T09:05:47.738Z,100987.66
2022-11-10T09:10:51.313Z,100993.22
2022-11-10T09:15:55.881Z,100994.28
2022-11-10T09:20:59.211Z,100993.66
2022-11-10T09:26:02.335Z,100995.97
2022-11-10T09:31:06.985Z,100990.44
2022-11-10T09:36:10.378Z,100991.91
2022-11-10T09:41:16.307Z,100988.22
2022-11-10T09:46:27.723Z,100972.50
2022-11-10T09:51:35.666Z,100975.25
2022-11-10T09:56:39.878Z,100976.59
2022-11-10T10:01:49.454Z,100977.91
2022-11-10T10:07:10.849Z,100963.25
2022-11-10T10:12:24.804Z,100971.38
2022-11-10T10:17:40.793Z,100965.59
2022-11-10T10:22:57.300Z,100960.38
2022-11-10T10:28:07.711Z,100955.44
2022-11-10T10:33:16.698Z,100962.72
2022-11-10T10:38:24.971Z,100962.47
2022-11-10T10:43:28.383Z,100965.38
2022-11-10T10:48:32.949Z,100957.75
2022-11-10T10:53:46.596Z,100947.50
2022-11-10T10:58:53.397Z,100944.84
2022-11-10T11:03:58.533Z,100944.81
2022-11-10T11:09:07.475Z,100945.72
2022-11-10T11:14:21.325Z,100943.88
2022-11-10T11:19:28.736Z,100942.16
2022-11-10T11:24:39.503Z,100928.97
2022-11-10T11:29:55.790Z,100926.47
2022-11-10T11:35:08.187Z,100909.78
2022-11-10T11:40:26.147Z,100904.91
2022-11-10T11:45:38.137Z,100908.09
2022-11-10T11:50:50.532Z,100893.50
2022-11-10T11:56:08.877Z,100878.22
2022-11-10T12:01:33.469Z,100870.78
2022-11-10T12:06:49.165Z,100854.53
2022-11-10T12:12:04.210Z,100854.31
2022-11-10T12:17:14.048Z,100848.94
2022-11-10T12:22:32.807Z,100852.47
2022-11-10T12:27:40.950Z,100837.06
2022-11-10T12:32:49.590Z,100819.06
2022-11-10T12:38:00.206Z,100818.19
2022-11-10T12:43:06.203Z,100810.16
2022-11-10T12:48:12.965Z,100797.34
2022-11-10T12:53:23.908Z,100788.22
2022-11-10T12:58:27.628Z,100789.56
2022-11-10T13:03:33.150Z,100775.84
2022-11-10T13:08:46.993Z,100765.38
2022-11-10T13:13:59.504Z,100769.91
2022-11-10T13:19:03.445Z,100752.63
2022-11-10T13:24:25.056Z,100740.63
2022-11-10T13:29:32.295Z,100736.78
2022-11-10T13:34:36.734Z,100736.00
2022-11-10T13:39:41.479Z,100726.72
2022-11-10T13:44:47.944Z,100722.28
2022-11-10T13:50:02.829Z,100707.69
2022-11-10T13:55:20.463Z,100704.06
2022-11-10T14:00:27.480Z,100704.34
2022-11-10T14:06:05.906Z,100698.13
2022-11-10T14:11:19.222Z,100696.91
2022-11-10T14:16:26.333Z,100686.00
2022-11-10T14:21:37.456Z,100688.63
2022-11-10T14:26:45.614Z,100670.41
2022-11-10T14:31:50.709Z,100664.03
2022-11-10T14:36:55.730Z,100670.53
2022-11-10T14:42:03.999Z,100673.84
2022-11-10T14:47:24.038Z,100655.31
2022-11-10T14:52:27.327Z,100662.97
2022-11-10T14:57:31.888Z,100657.91
2022-11-10T15:02:35.224Z,100671.22
2022-11-10T15:07:38.666Z,100675.69
2022-11-10T15:12:43.550Z,100678.28
2022-11-10T15:17:48.334Z,100684.41
2022-11-10T15:22:51.728Z,100686.75
2022-11-10T15:28:00.602Z,100686.75
2022-11-10T15:33:11.527Z,100686.69
2022-11-10T15:38:30.230Z,100675.50
2022-11-10T15:43:34.861Z,100667.06
2022-11-10T15:48:41.201Z,100670.09
2022-11-10T15:53:46.152Z,100667.84
2022-11-10T15:58:59.088Z,100673.06
2022-11-10T16:04:04.150Z,100665.09
2022-11-10T16:09:08.259Z,100659.41
2022-11-10T16:14:15.618Z,100655.47
2022-11-10T16:19:18.927Z,100659.72
2022-11-10T16:24:22.438Z,100662.91
2022-11-10T16:29:27.154Z,100666.56
2022-11-10T16:34:30.474Z,100659.44
2022-11-10T16:39:33.755Z,100657.13
2022-11-10T16:44:42.290Z,100660.81
2022-11-10T16:49:47.003Z,100657.91
2022-11-10T16:54:49.967Z,100662.31
2022-11-10T16:59:54.644Z,100660.56
2022-11-10T17:04:58.309Z,100666.03
2022-11-10T17:10:02.533Z,100669.53
2022-11-10T17:15:08.306Z,100676.09
2022-11-10T17:20:18.436Z,100680.75
2022-11-10T17:25:26.247Z,100682.81
2022-11-10T17:30:30.922Z,100691.97
2022-11-10T17:35:40.218Z,100695.41
2022-11-10T17:40:44.640Z,100705.47
2022-11-10T17:45:49.491Z,100708.16
2022-11-10T17:50:52.813Z,100705.56
2022-11-10T17:55:56.138Z,100710.59
2022-11-10T18:01:00.832Z,100714.59
2022-11-10T18:06:07.243Z,100717.78
2022-11-10T18:11:11.743Z,100727.38
2022-11-10T18:16:16.456Z,100718.88
2022-11-10T18:21:19.393Z,100725.63
2022-11-10T18:26:22.632Z,100720.47
2022-11-10T18:31:28.405Z,100734.06
2022-11-10T18:36:31.717Z,100730.53
2022-11-10T18:41:50.298Z,100741.69
2022-11-10T18:46:55.136Z,100740.53
2022-11-10T18:51:58.490Z,100741.63
2022-11-10T18:57:01.765Z,100745.28
2022-11-10T19:02:06.496Z,100747.69
2022-11-10T19:07:09.539Z,100750.13
2022-11-10T19:12:12.867Z,100758.81
2022-11-10T19:17:17.532Z,100757.00
2022-11-10T19:22:20.502Z,100758.38
2022-11-10T19:27:23.953Z,100764.34
2022-11-10T19:32:28.633Z,100767.13
2022-11-10T19:37:34.862Z,100774.66
2022-11-10T19:42:38.203Z,100768.13
2022-11-10T19:47:43.052Z,100772.97
2022-11-10T19:52:46.280Z,100779.94
2022-11-10T19:57:49.536Z,100785.50
2022-11-10T20:02:54.121Z,100785.56
2022-11-10T20:08:12.416Z,100786.63
2022-11-10T20:13:15.805Z,100791.03
2022-11-10T20:18:20.541Z,100786.88
2022-11-10T20:23:23.770Z,100788.16
2022-11-10T20:28:27.305Z,100789.03
2022-11-10T20:33:33.349Z,100793.22
2022-11-10T20:38:37.682Z,100786.44
2022-11-10T20:43:41.779Z,100785.75
2022-11-10T20:48:47.786Z,100801.56
2022-11-10T20:53:51.015Z,100813.75
2022-11-10T20:58:54.270Z,100817.53
2022-11-10T21:03:59.032Z,100823.22
2022-11-10T21:09:01.953Z,100824.81
2022-11-10T21:14:05.197Z,100829.06
2022-11-10T21:19:10.101Z,100836.16
2022-11-10T21:24:13.592Z,100836.31
2022-11-10T21:29:17.014Z,100841.03
2022-11-10T21:34:21.682Z,100836.88
2022-11-10T21:39:24.961Z,100841.22
2022-11-10T21:44:28.214Z,100845.56
2022-11-10T21:49:33.124Z,100853.56
2022-11-10T21:54:36.416Z,100844.88
2022-11-10T21:59:39.683Z,100857.22
2022-11-10T22:04:44.334Z,100847.56
2022-11-10T22:10:05.260Z,100848.66
2022-11-10T22:15:32.545Z,100854.00
2022-11-10T22:20:37.205Z,100848.00
2022-11-10T22:25:40.801Z,100849.81
2022-11-10T22:30:44.052Z,100858.81
2022-11-10T22:35:48.700Z,100859.72
2022-11-10T22:41:09.391Z,100860.88
2022-11-10T22:46:12.624Z,100857.66
2022-11-10T22:51:17.302Z,100865.44
2022-11-10T22:56:20.539Z,100861.38
2022-11-10T23:01:23.796Z,100860.31
2022-11-10T23:06:29.328Z,100863.09
2022-11-10T23:11:34.063Z,100866.06
2022-11-10T23:16:37.313Z,100866.16
2022-11-10T23:21:42.075Z,100877.75
2022-11-10T23:26:45.354Z,100881.84
2022-11-10T23:31:48.532Z,100880.25
2022-11-10T23:36:53.138Z,100889.44
2022-11-10T23:41:56.427Z,100890.00
2022-11-10T23:46:59.702Z,100881.94
2022-11-10T23:52:04.429Z,100880.16
2022-11-10T23:57:07.678Z,100881.00
